Terminal Aerodrome Forecast
Issued by NWS Blacksburg, VA

Current Version | Previous Version | Text Only | Print | Product List | Glossary Off
Versions: 1 2 3 4 5 6 7 8 9 10 11 12 13 14 15 16 17 18 19 20 21 22 23 24 25 26 27 28 29 30 31 32 33 34 35 36 37 38 39

000
FTUS41 KRNK 011553 AAB
TAFBLF
TAF AMD
KBLF 011553Z 0116/0212 27009G17KT P6SM SCT025
      TEMPO 0116/0117 BKN025
     FM011900 27011G20KT P6SM SCT040
     FM020300 24006KT P6SM BKN040
     FM020800 23005KT P6SM VCSH OVC035=

USA.gov is the U.S. government's official web portal to all federal, state and local government web resources and services.